createdAt,value
2018-11-25T00:01:30.538Z,100403.86
2018-11-25T00:03:58.060Z,100401.62
2018-11-25T00:06:25.399Z,100405.01
2018-11-25T00:08:52.743Z,100399.53
2018-11-25T00:11:20.175Z,100402.90
2018-11-25T00:13:47.564Z,100392.03
2018-11-25T00:16:15.001Z,100394.18
2018-11-25T00:18:42.341Z,100383.27
2018-11-25T00:21:09.703Z,100386.73
2018-11-25T00:23:37.152Z,100383.88
2018-11-25T00:26:04.545Z,100382.38
2018-11-25T00:28:31.861Z,100377.70
2018-11-25T00:30:59.243Z,100383.22
2018-11-25T00:33:26.795Z,100379.81
2018-11-25T00:35:54.143Z,100373.04
2018-11-25T00:38:21.647Z,100369.31
2018-11-25T00:40:48.980Z,100375.47
2018-11-25T00:43:16.364Z,100373.22
2018-11-25T00:45:43.810Z,100378.87
2018-11-25T00:48:11.192Z,100376.69
2018-11-25T00:50:38.685Z,100375.05
2018-11-25T00:53:06.397Z,100373.02
2018-11-25T00:55:33.730Z,100371.72
2018-11-25T00:58:01.170Z,100370.97
2018-11-25T01:00:28.628Z,100376.97
2018-11-25T01:02:56.183Z,100374.80
2018-11-25T01:05:23.526Z,100372.44
2018-11-25T01:07:50.942Z,100374.34
2018-11-25T01:10:18.287Z,100375.33
2018-11-25T01:12:45.892Z,100378.78
2018-11-25T01:15:14.399Z,100380.80
2018-11-25T01:17:41.837Z,100375.69
2018-11-25T01:20:10.845Z,100377.67
2018-11-25T01:22:38.203Z,100374.66
2018-11-25T01:25:07.286Z,100374.58
2018-11-25T01:27:34.688Z,100374.84
2018-11-25T01:30:02.127Z,100375.66
2018-11-25T01:32:30.528Z,100381.11
2018-11-25T01:35:01.162Z,100380.06
2018-11-25T01:37:24.288Z,100379.49
2018-11-25T01:39:51.660Z,100375.60
2018-11-25T01:42:19.077Z,100377.13
2018-11-25T01:44:46.461Z,100368.00
2018-11-25T01:47:13.773Z,100374.88
2018-11-25T01:49:41.228Z,100377.05
2018-11-25T01:52:08.551Z,100373.44
2018-11-25T01:54:35.951Z,100374.17
2018-11-25T01:57:03.344Z,100376.45
2018-11-25T01:59:30.660Z,100375.39
2018-11-25T02:01:58.160Z,100374.53
2018-11-25T02:04:25.550Z,100367.08
2018-11-25T02:06:52.870Z,100361.72
2018-11-25T02:09:20.187Z,100368.02
2018-11-25T02:11:47.630Z,100375.92
2018-11-25T02:14:15.038Z,100370.91
2018-11-25T02:16:42.349Z,100372.60
2018-11-25T02:19:09.777Z,100372.61
2018-11-25T02:21:37.124Z,100370.47
2018-11-25T02:24:04.620Z,100366.87
2018-11-25T02:26:32.173Z,100358.06
2018-11-25T02:28:59.497Z,100364.50
2018-11-25T02:31:26.863Z,100359.77
2018-11-25T02:33:54.272Z,100358.28
2018-11-25T02:36:21.675Z,100351.52
2018-11-25T02:38:49.061Z,100361.09
2018-11-25T02:41:16.455Z,100345.02
2018-11-25T02:43:43.806Z,100345.23
2018-11-25T02:46:11.273Z,100346.83
2018-11-25T02:48:39.400Z,100353.41
2018-11-25T02:51:06.717Z,100345.19
2018-11-25T02:53:35.044Z,100358.02
2018-11-25T02:56:02.387Z,100357.54
2018-11-25T02:58:29.825Z,100357.50
2018-11-25T03:00:57.352Z,100362.50
2018-11-25T03:03:24.733Z,100355.77
2018-11-25T03:05:52.150Z,100354.47
2018-11-25T03:08:19.539Z,100347.12
2018-11-25T03:10:46.910Z,100351.92
2018-11-25T03:13:14.258Z,100346.86
2018-11-25T03:15:41.650Z,100348.50
2018-11-25T03:18:09.082Z,100341.09
2018-11-25T03:20:36.550Z,100350.25
2018-11-25T03:23:03.904Z,100343.41
2018-11-25T03:25:31.404Z,100348.71
2018-11-25T03:27:58.734Z,100345.13
2018-11-25T03:30:26.086Z,100337.67
2018-11-25T03:32:53.841Z,100337.67
2018-11-25T03:35:21.368Z,100333.00
2018-11-25T03:37:49.646Z,100334.08
2018-11-25T03:40:18.267Z,100340.88
2018-11-25T03:42:45.736Z,100336.41
2018-11-25T03:45:20.890Z,100335.66
2018-11-25T03:47:48.488Z,100330.67
2018-11-25T03:50:16.147Z,100342.39
2018-11-25T03:52:43.498Z,100338.72
2018-11-25T03:55:12.215Z,100333.95
2018-11-25T03:57:39.685Z,100330.39
2018-11-25T04:00:13.359Z,100329.90
2018-11-25T04:02:40.946Z,100334.38
2018-11-25T04:05:09.663Z,100334.24
2018-11-25T04:07:37.089Z,100335.37
2018-11-25T04:10:06.856Z,100329.39
2018-11-25T04:12:34.272Z,100330.94
2018-11-25T04:15:01.639Z,100336.84
2018-11-25T04:17:29.119Z,100326.29
2018-11-25T04:19:56.499Z,100328.23
2018-11-25T04:22:23.853Z,100324.32
2018-11-25T04:24:51.223Z,100326.06
2018-11-25T04:27:18.665Z,100328.53
2018-11-25T04:29:46.047Z,100327.81
2018-11-25T04:32:13.528Z,100324.04
2018-11-25T04:34:40.858Z,100333.43
2018-11-25T04:37:08.212Z,100341.52
2018-11-25T04:39:35.621Z,100338.70
2018-11-25T04:42:02.992Z,100338.23
2018-11-25T04:44:30.306Z,100335.63
2018-11-25T04:46:58.356Z,100342.54
2018-11-25T04:49:25.689Z,100338.20
2018-11-25T04:51:53.041Z,100342.41
2018-11-25T04:54:20.384Z,100352.25
2018-11-25T04:56:47.892Z,100353.02
2018-11-25T04:59:15.302Z,100349.99
2018-11-25T05:01:42.655Z,100347.18
2018-11-25T05:04:10.058Z,100347.34
2018-11-25T05:06:37.492Z,100339.59
2018-11-25T05:09:07.422Z,100331.38
2018-11-25T05:11:35.190Z,100331.30
2018-11-25T05:14:02.486Z,100328.98
2018-11-25T05:16:29.844Z,100331.97
2018-11-25T05:18:57.188Z,100327.20
2018-11-25T05:21:24.530Z,100321.58
2018-11-25T05:23:51.850Z,100332.10
2018-11-25T05:26:19.212Z,100334.48
2018-11-25T05:28:46.614Z,100328.95
2018-11-25T05:31:13.961Z,100337.84
2018-11-25T05:33:41.283Z,100337.45
2018-11-25T05:36:08.665Z,100345.52
2018-11-25T05:38:36.109Z,100338.82
2018-11-25T05:41:03.512Z,100345.06
2018-11-25T05:43:30.873Z,100343.25
2018-11-25T05:45:58.287Z,100337.45
2018-11-25T05:48:25.666Z,100339.19
2018-11-25T05:50:53.033Z,100333.81
2018-11-25T05:53:20.349Z,100322.53
2018-11-25T05:55:47.746Z,100332.08
2018-11-25T05:58:15.073Z,100337.12
2018-11-25T06:00:42.439Z,100335.31
2018-11-25T06:03:09.759Z,100338.83
2018-11-25T06:05:37.073Z,100343.81
2018-11-25T06:08:04.550Z,100340.19
2018-11-25T06:10:31.951Z,100342.17
2018-11-25T06:12:59.432Z,100344.78
2018-11-25T06:15:26.747Z,100352.69
2018-11-25T06:17:54.152Z,100355.81
2018-11-25T06:20:21.540Z,100356.35
2018-11-25T06:22:48.916Z,100356.94
2018-11-25T06:25:18.402Z,100360.02
2018-11-25T06:27:45.907Z,100357.34
2018-11-25T06:30:16.055Z,100363.44
2018-11-25T06:32:43.410Z,100356.52
2018-11-25T06:35:12.326Z,100358.00
2018-11-25T06:37:39.681Z,100367.52
2018-11-25T06:40:10.986Z,100364.05
2018-11-25T06:42:38.338Z,100365.34
2018-11-25T06:45:09.910Z,100363.30
2018-11-25T06:47:37.294Z,100366.47
2018-11-25T06:50:06.462Z,100364.41
2018-11-25T06:52:37.332Z,100371.23
2018-11-25T06:55:05.466Z,100374.91
2018-11-25T06:57:32.817Z,100380.05
2018-11-25T07:00:00.894Z,100379.73
2018-11-25T07:02:28.277Z,100389.13
2018-11-25T07:04:55.603Z,100384.65
2018-11-25T07:07:23.153Z,100377.66
2018-11-25T07:09:50.579Z,100378.55
2018-11-25T07:12:18.039Z,100380.57
2018-11-25T07:14:45.473Z,100386.43
2018-11-25T07:17:12.832Z,100379.59
2018-11-25T07:19:40.215Z,100380.58
2018-11-25T07:22:07.590Z,100383.28
2018-11-25T07:24:34.959Z,100384.84
2018-11-25T07:27:02.262Z,100373.14
2018-11-25T07:29:29.643Z,100378.81
2018-11-25T07:31:57.098Z,100385.55
2018-11-25T07:34:24.449Z,100384.05
2018-11-25T07:36:51.821Z,100385.17
2018-11-25T07:39:19.134Z,100381.44
2018-11-25T07:41:46.486Z,100381.34
2018-11-25T07:44:13.817Z,100378.09
2018-11-25T07:46:43.301Z,100376.17
2018-11-25T07:49:10.750Z,100380.66
2018-11-25T07:51:38.121Z,100383.91
2018-11-25T07:54:05.937Z,100394.95
2018-11-25T07:56:33.385Z,100389.16
2018-11-25T07:59:00.838Z,100391.05
2018-11-25T08:01:28.158Z,100394.66
2018-11-25T08:03:55.521Z,100388.12
2018-11-25T08:06:22.816Z,100384.34
2018-11-25T08:08:50.171Z,100386.80
2018-11-25T08:11:17.547Z,100383.16
2018-11-25T08:13:44.974Z,100381.31
2018-11-25T08:16:12.311Z,100386.61
2018-11-25T08:18:39.608Z,100388.58
2018-11-25T08:21:06.974Z,100384.50
2018-11-25T08:23:34.320Z,100383.33
2018-11-25T08:26:01.766Z,100387.34
2018-11-25T08:28:29.253Z,100388.68
2018-11-25T08:30:56.577Z,100383.42
2018-11-25T08:33:23.978Z,100386.61
2018-11-25T08:35:51.278Z,100394.85
2018-11-25T08:38:18.777Z,100393.31
2018-11-25T08:40:46.098Z,100398.09
2018-11-25T08:43:14.059Z,100399.33
2018-11-25T08:45:41.475Z,100396.55
2018-11-25T08:48:08.892Z,100391.42
2018-11-25T08:50:36.303Z,100391.55
2018-11-25T08:53:03.608Z,100389.60
2018-11-25T08:55:31.115Z,100388.20
2018-11-25T08:57:58.555Z,100390.81
2018-11-25T09:00:27.174Z,100395.37
2018-11-25T09:02:54.913Z,100395.98
2018-11-25T09:05:22.322Z,100394.88
2018-11-25T09:07:49.694Z,100400.06
2018-11-25T09:10:19.041Z,100391.78
2018-11-25T09:12:55.229Z,100394.67
2018-11-25T09:15:18.459Z,100389.65
2018-11-25T09:17:46.417Z,100392.31
2018-11-25T09:20:15.712Z,100398.09
2018-11-25T09:22:43.188Z,100405.69
2018-11-25T09:25:13.828Z,100401.23
2018-11-25T09:27:41.412Z,100400.00
2018-11-25T09:30:19.138Z,100397.71
2018-11-25T09:32:48.534Z,100395.06
2018-11-25T09:35:16.922Z,100398.83
2018-11-25T09:37:44.500Z,100404.16
2018-11-25T09:40:14.764Z,100390.63
2018-11-25T09:42:42.252Z,100397.69
2018-11-25T09:45:11.824Z,100401.19
2018-11-25T09:47:39.309Z,100399.06
2018-11-25T09:50:08.931Z,100401.61
2018-11-25T09:52:36.554Z,100399.08
2018-11-25T09:55:04.621Z,100396.42
2018-11-25T09:57:32.023Z,100405.33
2018-11-25T09:59:59.434Z,100394.62
2018-11-25T10:02:26.827Z,100398.12
2018-11-25T10:04:54.191Z,100398.05
2018-11-25T10:07:21.583Z,100400.17
2018-11-25T10:09:48.984Z,100409.38
2018-11-25T10:12:16.354Z,100409.11
2018-11-25T10:14:43.744Z,100407.53
2018-11-25T10:17:11.101Z,100405.88
2018-11-25T10:19:38.435Z,100402.30
2018-11-25T10:22:05.959Z,100413.95
2018-11-25T10:24:33.408Z,100405.41
2018-11-25T10:27:00.803Z,100411.28
2018-11-25T10:29:28.166Z,100414.41
2018-11-25T10:31:56.146Z,100420.00
2018-11-25T10:34:23.565Z,100415.32
2018-11-25T10:36:50.983Z,100413.94
2018-11-25T10:39:18.322Z,100408.68
2018-11-25T10:41:45.722Z,100406.16
2018-11-25T10:44:13.116Z,100407.58
2018-11-25T10:46:40.512Z,100407.83
2018-11-25T10:49:07.967Z,100396.46
2018-11-25T10:51:35.464Z,100396.98
2018-11-25T10:54:02.867Z,100401.23
2018-11-25T10:56:30.194Z,100399.40
2018-11-25T10:58:57.729Z,100402.36
2018-11-25T11:01:30.795Z,100389.61
2018-11-25T11:03:58.208Z,100398.91
2018-11-25T11:06:31.809Z,100396.52
2018-11-25T11:08:59.219Z,100392.09
2018-11-25T11:11:27.366Z,100377.58
2018-11-25T11:13:54.728Z,100375.16
2018-11-25T11:16:22.136Z,100382.80
2018-11-25T11:18:49.526Z,100378.79
2018-11-25T11:21:16.869Z,100385.53
2018-11-25T11:23:48.847Z,100384.56
2018-11-25T11:26:22.268Z,100386.17
2018-11-25T11:28:49.759Z,100390.00
2018-11-25T11:31:17.201Z,100387.54
2018-11-25T11:33:44.711Z,100388.06
2018-11-25T11:36:12.121Z,100392.23
2018-11-25T11:38:39.985Z,100389.71
2018-11-25T11:41:07.283Z,100388.97
2018-11-25T11:43:34.657Z,100387.10
2018-11-25T11:46:02.069Z,100382.25
2018-11-25T11:48:31.073Z,100383.50
2018-11-25T11:50:58.414Z,100396.13
2018-11-25T11:53:25.857Z,100389.52
2018-11-25T11:55:53.269Z,100386.62
2018-11-25T11:58:20.656Z,100387.47
2018-11-25T12:00:49.026Z,100384.65
2018-11-25T12:03:16.523Z,100391.42
2018-11-25T12:05:43.938Z,100394.59
2018-11-25T12:08:11.303Z,100391.52
2018-11-25T12:10:38.737Z,100392.93
2018-11-25T12:13:06.314Z,100392.09
2018-11-25T12:15:33.804Z,100394.45
2018-11-25T12:18:03.705Z,100395.85
2018-11-25T12:20:31.578Z,100395.37
2018-11-25T12:22:59.646Z,100393.95
2018-11-25T12:25:27.040Z,100391.58
2018-11-25T12:27:54.504Z,100396.52
2018-11-25T12:30:21.928Z,100390.19
2018-11-25T12:32:50.469Z,100387.17
2018-11-25T12:35:18.298Z,100384.08
2018-11-25T12:37:45.690Z,100380.18
2018-11-25T12:40:19.201Z,100384.71
2018-11-25T12:42:48.479Z,100383.05
2018-11-25T12:45:16.887Z,100386.46
2018-11-25T12:47:44.327Z,100387.38
2018-11-25T12:50:15.979Z,100385.56
2018-11-25T12:52:43.390Z,100383.44
2018-11-25T12:55:16.137Z,100381.84
2018-11-25T12:57:43.690Z,100386.87
2018-11-25T13:00:29.656Z,100379.31
2018-11-25T13:02:57.393Z,100374.53
2018-11-25T13:05:24.732Z,100376.13
2018-11-25T13:07:52.540Z,100366.44
2018-11-25T13:10:19.986Z,100362.44
2018-11-25T13:12:47.467Z,100370.62
2018-11-25T13:15:18.004Z,100369.41
2018-11-25T13:17:45.483Z,100369.00
2018-11-25T13:20:14.126Z,100365.28
2018-11-25T13:22:41.475Z,100360.35
2018-11-25T13:25:10.437Z,100369.13
2018-11-25T13:27:37.765Z,100366.89
2018-11-25T13:30:17.102Z,100361.18
2018-11-25T13:32:44.757Z,100361.41
2018-11-25T13:35:12.152Z,100364.67
2018-11-25T13:37:39.463Z,100365.27
2018-11-25T13:40:09.466Z,100365.69
2018-11-25T13:42:36.907Z,100365.23
2018-11-25T13:45:03.193Z,100363.50
2018-11-25T13:47:30.627Z,100368.59
2018-11-25T13:49:57.953Z,100365.89
2018-11-25T13:52:25.532Z,100364.92
2018-11-25T13:54:53.030Z,100359.41
2018-11-25T13:57:20.445Z,100365.82
2018-11-25T13:59:47.762Z,100370.42
2018-11-25T14:02:15.106Z,100367.08
2018-11-25T14:04:42.481Z,100359.27
2018-11-25T14:07:09.896Z,100363.74
2018-11-25T14:09:37.267Z,100371.39
2018-11-25T14:12:04.836Z,100368.47
2018-11-25T14:14:32.297Z,100369.91
2018-11-25T14:16:59.702Z,100360.55
2018-11-25T14:19:27.120Z,100368.81
2018-11-25T14:21:54.500Z,100373.95
2018-11-25T14:24:22.009Z,100381.63
2018-11-25T14:26:52.918Z,100384.05
2018-11-25T14:29:20.383Z,100379.53
2018-11-25T14:31:48.324Z,100376.59
2018-11-25T14:34:15.823Z,100374.86
2018-11-25T14:36:43.209Z,100375.47
2018-11-25T14:39:11.783Z,100376.56
2018-11-25T14:41:39.446Z,100371.19
2018-11-25T14:44:09.239Z,100374.47
2018-11-25T14:46:36.125Z,100378.23
2018-11-25T14:49:04.625Z,100384.35
2018-11-25T14:51:32.092Z,100385.31
2018-11-25T14:53:59.558Z,100385.03
2018-11-25T14:56:27.163Z,100388.02
2018-11-25T14:58:54.509Z,100393.37
2018-11-25T15:01:21.872Z,100383.89
2018-11-25T15:03:54.972Z,100381.22
2018-11-25T15:06:29.286Z,100381.95
2018-11-25T15:08:52.536Z,100379.20
2018-11-25T15:11:19.889Z,100373.66
2018-11-25T15:13:47.263Z,100378.58
2018-11-25T15:16:15.107Z,100379.35
2018-11-25T15:18:42.633Z,100381.70
2018-11-25T15:21:11.500Z,100382.12
2018-11-25T15:23:38.889Z,100378.88
2018-11-25T15:26:07.744Z,100386.75
2018-11-25T15:28:35.926Z,100385.83
2018-11-25T15:31:03.319Z,100390.91
2018-11-25T15:33:30.652Z,100393.26
2018-11-25T15:35:58.017Z,100394.20
2018-11-25T15:38:25.403Z,100392.53
2018-11-25T15:40:52.840Z,100387.18
2018-11-25T15:43:20.280Z,100385.87
2018-11-25T15:45:47.782Z,100390.95
2018-11-25T15:48:21.165Z,100390.39
2018-11-25T15:50:48.812Z,100392.78
2018-11-25T15:53:16.233Z,100393.90
2018-11-25T15:55:44.944Z,100398.91
2018-11-25T15:58:12.268Z,100400.22
2018-11-25T16:00:39.710Z,100401.94
2018-11-25T16:03:08.626Z,100405.61
2018-11-25T16:05:36.891Z,100399.66
2018-11-25T16:08:04.503Z,100396.41
2018-11-25T16:10:31.758Z,100394.48
2018-11-25T16:12:59.113Z,100396.34
2018-11-25T16:15:27.616Z,100398.12
2018-11-25T16:17:55.181Z,100406.73
2018-11-25T16:20:24.501Z,100405.47
2018-11-25T16:23:00.297Z,100399.77
2018-11-25T16:25:36.332Z,100395.39
2018-11-25T16:28:09.998Z,100403.03
2018-11-25T16:30:37.593Z,100397.80
2018-11-25T16:33:04.964Z,100398.36
2018-11-25T16:35:32.354Z,100398.42
2018-11-25T16:37:59.784Z,100399.66
2018-11-25T16:40:27.220Z,100405.56
2018-11-25T16:42:54.704Z,100397.73
2018-11-25T16:45:22.080Z,100404.55
2018-11-25T16:47:49.418Z,100400.60
2018-11-25T16:50:25.048Z,100404.55
2018-11-25T16:52:45.186Z,100400.63
2018-11-25T16:55:13.537Z,100398.82
2018-11-25T16:57:41.789Z,100402.36
2018-11-25T17:00:14.472Z,100407.72
2018-11-25T17:02:41.802Z,100413.32
2018-11-25T17:05:12.869Z,100408.53
2018-11-25T17:07:40.320Z,100409.28
2018-11-25T17:10:09.507Z,100406.34
2018-11-25T17:12:36.946Z,100407.13
2018-11-25T17:15:09.369Z,100402.58
2018-11-25T17:17:36.686Z,100405.74
2018-11-25T17:20:04.356Z,100406.78
2018-11-25T17:22:31.795Z,100399.16
2018-11-25T17:24:59.309Z,100406.69
2018-11-25T17:27:26.791Z,100404.91
2018-11-25T17:29:54.168Z,100401.93
2018-11-25T17:32:21.555Z,100396.67
2018-11-25T17:34:49.004Z,100396.56
2018-11-25T17:37:16.464Z,100398.77
2018-11-25T17:39:43.871Z,100396.16
2018-11-25T17:42:11.286Z,100397.91
2018-11-25T17:44:38.662Z,100396.67
2018-11-25T17:47:06.183Z,100390.30
2018-11-25T17:49:33.559Z,100399.20
2018-11-25T17:52:01.066Z,100390.80
2018-11-25T17:54:28.405Z,100404.83
2018-11-25T17:56:55.866Z,100404.04
2018-11-25T17:59:23.344Z,100410.88
2018-11-25T18:01:50.843Z,100402.75
2018-11-25T18:04:18.272Z,100407.89
2018-11-25T18:06:46.268Z,100407.66
2018-11-25T18:09:13.762Z,100405.54
2018-11-25T18:11:41.083Z,100405.00
2018-11-25T18:14:09.026Z,100412.97
2018-11-25T18:16:36.622Z,100417.16
2018-11-25T18:19:20.215Z,100420.53
2018-11-25T18:21:49.424Z,100416.67
2018-11-25T18:24:18.211Z,100422.46
2018-11-25T18:26:45.716Z,100417.35
2018-11-25T18:29:13.748Z,100424.14
2018-11-25T18:31:41.183Z,100419.58
2018-11-25T18:34:09.228Z,100429.44
2018-11-25T18:36:37.243Z,100422.84
2018-11-25T18:39:08.488Z,100424.61
2018-11-25T18:41:36.013Z,100424.13
2018-11-25T18:44:03.525Z,100435.22
2018-11-25T18:46:31.703Z,100428.66
2018-11-25T18:48:59.244Z,100429.44
2018-11-25T18:51:26.664Z,100424.72
2018-11-25T18:53:54.431Z,100428.56
2018-11-25T18:56:22.083Z,100424.52
2018-11-25T18:58:49.763Z,100426.75
2018-11-25T19:01:34.208Z,100423.33
2018-11-25T19:04:01.683Z,100430.99
2018-11-25T19:06:29.132Z,100426.17
2018-11-25T19:08:56.693Z,100423.13
2018-11-25T19:11:24.065Z,100426.16
2018-11-25T19:13:51.514Z,100419.63
2018-11-25T19:16:18.952Z,100424.73
2018-11-25T19:18:46.337Z,100427.12
2018-11-25T19:21:13.968Z,100429.56
2018-11-25T19:23:41.358Z,100425.25
2018-11-25T19:26:08.727Z,100426.30
2018-11-25T19:28:36.706Z,100429.06
2018-11-25T19:31:04.084Z,100431.69
2018-11-25T19:33:31.563Z,100436.59
2018-11-25T19:35:59.493Z,100436.30
2018-11-25T19:38:27.561Z,100434.13
2018-11-25T19:40:54.988Z,100440.13
2018-11-25T19:43:22.422Z,100429.22
2018-11-25T19:45:50.384Z,100432.93
2018-11-25T19:48:17.856Z,100431.48
2018-11-25T19:50:45.185Z,100432.08
2018-11-25T19:53:12.715Z,100434.63
2018-11-25T19:55:41.055Z,100434.74
2018-11-25T19:58:08.558Z,100434.65
2018-11-25T20:00:36.011Z,100436.06
2018-11-25T20:03:03.470Z,100429.20
2018-11-25T20:05:30.884Z,100432.41
2018-11-25T20:07:58.494Z,100429.20
2018-11-25T20:10:26.462Z,100427.37
2018-11-25T20:12:55.081Z,100421.27
2018-11-25T20:15:22.431Z,100432.02
2018-11-25T20:17:54.389Z,100424.22
2018-11-25T20:20:21.180Z,100436.04
2018-11-25T20:22:48.994Z,100438.41
2018-11-25T20:25:17.098Z,100426.96
2018-11-25T20:27:46.436Z,100429.19
2018-11-25T20:30:18.803Z,100433.34
2018-11-25T20:32:51.997Z,100433.56
2018-11-25T20:35:19.390Z,100435.02
2018-11-25T20:37:52.443Z,100441.48
2018-11-25T20:40:19.963Z,100439.80
2018-11-25T20:42:47.349Z,100446.91
2018-11-25T20:45:21.761Z,100450.17
2018-11-25T20:47:49.119Z,100448.25
2018-11-25T20:50:16.492Z,100452.62
2018-11-25T20:52:49.705Z,100454.13
2018-11-25T20:55:17.519Z,100454.52
2018-11-25T20:57:45.038Z,100455.80
2018-11-25T21:00:15.155Z,100448.53
2018-11-25T21:02:42.219Z,100460.09
2018-11-25T21:05:11.867Z,100452.31
2018-11-25T21:07:39.892Z,100454.33
2018-11-25T21:10:10.686Z,100453.69
2018-11-25T21:12:38.441Z,100452.03
2018-11-25T21:15:07.614Z,100454.66
2018-11-25T21:17:35.054Z,100447.56
2018-11-25T21:20:03.224Z,100453.39
2018-11-25T21:22:30.756Z,100454.27
2018-11-25T21:24:58.097Z,100447.77
2018-11-25T21:27:25.449Z,100447.89
2018-11-25T21:29:52.877Z,100448.90
2018-11-25T21:32:20.410Z,100450.41
2018-11-25T21:34:47.960Z,100445.38
2018-11-25T21:37:15.418Z,100453.16
2018-11-25T21:39:42.925Z,100453.49
2018-11-25T21:42:10.402Z,100449.95
2018-11-25T21:44:37.768Z,100455.47
2018-11-25T21:47:06.006Z,100454.80
2018-11-25T21:49:33.426Z,100456.75
2018-11-25T21:52:00.850Z,100454.63
2018-11-25T21:54:28.174Z,100448.16
2018-11-25T21:56:55.691Z,100446.27
2018-11-25T21:59:23.030Z,100453.43
2018-11-25T22:01:50.380Z,100453.30
2018-11-25T22:04:17.870Z,100454.01
2018-11-25T22:06:45.300Z,100455.30
2018-11-25T22:09:12.766Z,100453.34
2018-11-25T22:11:40.263Z,100444.37
2018-11-25T22:14:07.691Z,100454.52
2018-11-25T22:16:35.677Z,100449.03
2018-11-25T22:19:06.997Z,100452.81
2018-11-25T22:21:34.615Z,100453.55
2018-11-25T22:24:02.002Z,100452.33
2018-11-25T22:26:29.321Z,100449.17
2018-11-25T22:28:56.683Z,100450.70
2018-11-25T22:31:24.031Z,100447.98
2018-11-25T22:33:51.470Z,100452.03
2018-11-25T22:36:18.912Z,100453.34
2018-11-25T22:38:46.399Z,100457.33
2018-11-25T22:41:13.786Z,100456.48
2018-11-25T22:43:41.280Z,100458.80
2018-11-25T22:46:08.602Z,100462.55
2018-11-25T22:48:35.999Z,100466.34
2018-11-25T22:51:03.355Z,100472.64
2018-11-25T22:53:30.755Z,100472.69
2018-11-25T22:55:58.179Z,100478.00
2018-11-25T22:58:25.569Z,100466.47
2018-11-25T23:00:53.406Z,100477.92
2018-11-25T23:03:21.050Z,100468.08
2018-11-25T23:06:02.701Z,100476.52
2018-11-25T23:08:30.134Z,100471.77
2018-11-25T23:10:57.546Z,100461.80
2018-11-25T23:13:24.849Z,100470.63
2018-11-25T23:15:52.220Z,100466.97
2018-11-25T23:18:20.148Z,100457.15
2018-11-25T23:20:47.485Z,100460.73
2018-11-25T23:23:14.906Z,100464.25
2018-11-25T23:25:42.335Z,100450.66
2018-11-25T23:28:09.826Z,100456.03
2018-11-25T23:30:37.212Z,100443.67
2018-11-25T23:33:04.831Z,100442.80
2018-11-25T23:35:33.313Z,100445.12
2018-11-25T23:38:00.649Z,100444.72
2018-11-25T23:40:28.027Z,100440.72
2018-11-25T23:42:55.339Z,100443.69
2018-11-25T23:45:22.801Z,100440.06
2018-11-25T23:47:50.107Z,100439.38
2018-11-25T23:50:17.427Z,100429.41
2018-11-25T23:52:47.059Z,100429.31
2018-11-25T23:55:14.909Z,100428.19
2018-11-25T23:57:42.833Z,100439.98
